sensor_id;sensor_type;location;lat;lon;timestamp;P1;durP1;ratioP1;P2;durP2;ratioP2
40729;SDS011;26418;50.070;8.436;2023-01-25T00:01:13;20.67;;;10.98;;
40729;SDS011;26418;50.070;8.436;2023-01-25T00:03:38;22.23;;;12.30;;
40729;SDS011;26418;50.070;8.436;2023-01-25T00:06:04;19.48;;;10.57;;
40729;SDS011;26418;50.070;8.436;2023-01-25T00:08:29;21.00;;;11.30;;
40729;SDS011;26418;50.070;8.436;2023-01-25T00:10:54;22.08;;;11.25;;
40729;SDS011;26418;50.070;8.436;2023-01-25T00:13:20;20.05;;;11.20;;
40729;SDS011;26418;50.070;8.436;2023-01-25T00:15:45;22.98;;;12.50;;
40729;SDS011;26418;50.070;8.436;2023-01-25T00:18:10;19.75;;;11.90;;
40729;SDS011;26418;50.070;8.436;2023-01-25T00:20:35;26.27;;;11.82;;
40729;SDS011;26418;50.070;8.436;2023-01-25T00:23:01;20.17;;;11.07;;
40729;SDS011;26418;50.070;8.436;2023-01-25T00:25:26;21.08;;;11.85;;
40729;SDS011;26418;50.070;8.436;2023-01-25T00:27:51;24.38;;;12.25;;
40729;SDS011;26418;50.070;8.436;2023-01-25T00:30:17;21.65;;;11.93;;
40729;SDS011;26418;50.070;8.436;2023-01-25T00:33:32;22.15;;;11.05;;
40729;SDS011;26418;50.070;8.436;2023-01-25T00:35:50;21.35;;;11.73;;
40729;SDS011;26418;50.070;8.436;2023-01-25T00:38:25;22.80;;;11.45;;
40729;SDS011;26418;50.070;8.436;2023-01-25T00:40:57;20.88;;;11.38;;
40729;SDS011;26418;50.070;8.436;2023-01-25T00:43:23;22.92;;;11.77;;
40729;SDS011;26418;50.070;8.436;2023-01-25T00:45:48;20.30;;;11.45;;
40729;SDS011;26418;50.070;8.436;2023-01-25T00:48:14;18.92;;;11.00;;
40729;SDS011;26418;50.070;8.436;2023-01-25T00:50:39;22.85;;;12.35;;
40729;SDS011;26418;50.070;8.436;2023-01-25T00:53:05;21.58;;;11.07;;
40729;SDS011;26418;50.070;8.436;2023-01-25T00:55:30;20.50;;;11.75;;
40729;SDS011;26418;50.070;8.436;2023-01-25T00:57:55;19.17;;;10.98;;
40729;SDS011;26418;50.070;8.436;2023-01-25T01:00:20;21.65;;;11.82;;
40729;SDS011;26418;50.070;8.436;2023-01-25T01:02:46;18.08;;;9.95;;
40729;SDS011;26418;50.070;8.436;2023-01-25T01:05:11;23.33;;;11.55;;
40729;SDS011;26418;50.070;8.436;2023-01-25T01:07:36;19.90;;;11.48;;
40729;SDS011;26418;50.070;8.436;2023-01-25T01:10:02;23.13;;;11.55;;
40729;SDS011;26418;50.070;8.436;2023-01-25T01:12:28;21.98;;;12.38;;
40729;SDS011;26418;50.070;8.436;2023-01-25T01:14:53;16.60;;;10.05;;
40729;SDS011;26418;50.070;8.436;2023-01-25T01:17:19;22.00;;;11.70;;
40729;SDS011;26418;50.070;8.436;2023-01-25T01:19:44;23.75;;;11.73;;
40729;SDS011;26418;50.070;8.436;2023-01-25T01:22:09;23.67;;;11.85;;
40729;SDS011;26418;50.070;8.436;2023-01-25T01:24:35;22.30;;;11.95;;
40729;SDS011;26418;50.070;8.436;2023-01-25T01:27:00;24.40;;;12.57;;
40729;SDS011;26418;50.070;8.436;2023-01-25T01:29:25;19.50;;;11.82;;
40729;SDS011;26418;50.070;8.436;2023-01-25T01:31:51;23.33;;;11.13;;
40729;SDS011;26418;50.070;8.436;2023-01-25T01:34:17;26.15;;;11.52;;
40729;SDS011;26418;50.070;8.436;2023-01-25T01:36:43;24.60;;;12.52;;
40729;SDS011;26418;50.070;8.436;2023-01-25T01:39:09;21.23;;;12.10;;
40729;SDS011;26418;50.070;8.436;2023-01-25T01:41:35;24.58;;;11.50;;
40729;SDS011;26418;50.070;8.436;2023-01-25T01:44:00;21.33;;;11.05;;
40729;SDS011;26418;50.070;8.436;2023-01-25T01:49:12;24.67;;;12.23;;
40729;SDS011;26418;50.070;8.436;2023-01-25T01:54:33;21.83;;;10.63;;
40729;SDS011;26418;50.070;8.436;2023-01-25T01:57:09;22.67;;;12.00;;
40729;SDS011;26418;50.070;8.436;2023-01-25T01:59:40;19.55;;;10.93;;
40729;SDS011;26418;50.070;8.436;2023-01-25T02:02:10;20.20;;;11.43;;
40729;SDS011;26418;50.070;8.436;2023-01-25T02:04:37;20.23;;;11.15;;
40729;SDS011;26418;50.070;8.436;2023-01-25T02:07:04;20.58;;;11.05;;
40729;SDS011;26418;50.070;8.436;2023-01-25T02:09:35;20.17;;;11.00;;
40729;SDS011;26418;50.070;8.436;2023-01-25T02:12:02;19.77;;;11.07;;
40729;SDS011;26418;50.070;8.436;2023-01-25T02:14:30;21.77;;;11.20;;
40729;SDS011;26418;50.070;8.436;2023-01-25T02:16:55;23.65;;;12.35;;
40729;SDS011;26418;50.070;8.436;2023-01-25T02:22:17;21.98;;;12.30;;
40729;SDS011;26418;50.070;8.436;2023-01-25T02:25:00;22.58;;;11.98;;
40729;SDS011;26418;50.070;8.436;2023-01-25T02:27:30;23.08;;;12.52;;
40729;SDS011;26418;50.070;8.436;2023-01-25T02:29:57;20.02;;;11.52;;
40729;SDS011;26418;50.070;8.436;2023-01-25T02:32:23;23.92;;;11.73;;
40729;SDS011;26418;50.070;8.436;2023-01-25T02:34:48;24.92;;;12.48;;
40729;SDS011;26418;50.070;8.436;2023-01-25T02:37:14;21.77;;;12.38;;
40729;SDS011;26418;50.070;8.436;2023-01-25T02:39:40;22.08;;;11.85;;
40729;SDS011;26418;50.070;8.436;2023-01-25T02:42:06;21.92;;;11.75;;
40729;SDS011;26418;50.070;8.436;2023-01-25T02:44:31;22.30;;;12.05;;
40729;SDS011;26418;50.070;8.436;2023-01-25T02:46:57;22.27;;;11.85;;
40729;SDS011;26418;50.070;8.436;2023-01-25T02:49:23;22.92;;;12.05;;
40729;SDS011;26418;50.070;8.436;2023-01-25T02:51:51;22.80;;;12.93;;
40729;SDS011;26418;50.070;8.436;2023-01-25T02:54:21;21.73;;;12.57;;
40729;SDS011;26418;50.070;8.436;2023-01-25T02:56:47;22.80;;;12.98;;
40729;SDS011;26418;50.070;8.436;2023-01-25T02:59:13;21.80;;;12.07;;
40729;SDS011;26418;50.070;8.436;2023-01-25T03:01:39;24.42;;;12.20;;
40729;SDS011;26418;50.070;8.436;2023-01-25T03:04:06;22.25;;;11.90;;
40729;SDS011;26418;50.070;8.436;2023-01-25T03:06:33;20.10;;;11.48;;
40729;SDS011;26418;50.070;8.436;2023-01-25T03:08:59;20.55;;;11.98;;
40729;SDS011;26418;50.070;8.436;2023-01-25T03:11:26;20.92;;;11.50;;
40729;SDS011;26418;50.070;8.436;2023-01-25T03:13:51;23.38;;;11.60;;
40729;SDS011;26418;50.070;8.436;2023-01-25T03:16:17;25.45;;;12.77;;
40729;SDS011;26418;50.070;8.436;2023-01-25T03:18:42;24.17;;;12.88;;
40729;SDS011;26418;50.070;8.436;2023-01-25T03:21:12;23.70;;;12.65;;
40729;SDS011;26418;50.070;8.436;2023-01-25T03:23:40;26.02;;;13.65;;
40729;SDS011;26418;50.070;8.436;2023-01-25T03:28:43;25.40;;;14.07;;
40729;SDS011;26418;50.070;8.436;2023-01-25T03:31:09;26.30;;;14.23;;
40729;SDS011;26418;50.070;8.436;2023-01-25T03:33:36;27.05;;;13.35;;
40729;SDS011;26418;50.070;8.436;2023-01-25T03:36:01;24.67;;;13.70;;
40729;SDS011;26418;50.070;8.436;2023-01-25T03:38:28;25.75;;;13.77;;
40729;SDS011;26418;50.070;8.436;2023-01-25T03:40:54;25.35;;;14.07;;
40729;SDS011;26418;50.070;8.436;2023-01-25T03:43:20;25.98;;;13.00;;
40729;SDS011;26418;50.070;8.436;2023-01-25T03:45:50;27.80;;;14.38;;
40729;SDS011;26418;50.070;8.436;2023-01-25T03:48:18;26.40;;;13.65;;
40729;SDS011;26418;50.070;8.436;2023-01-25T03:50:51;25.60;;;13.25;;
40729;SDS011;26418;50.070;8.436;2023-01-25T03:53:18;29.83;;;14.20;;
40729;SDS011;26418;50.070;8.436;2023-01-25T03:56:03;25.65;;;13.98;;
40729;SDS011;26418;50.070;8.436;2023-01-25T03:58:33;25.70;;;13.55;;
40729;SDS011;26418;50.070;8.436;2023-01-25T04:01:00;24.95;;;13.35;;
40729;SDS011;26418;50.070;8.436;2023-01-25T04:03:27;28.83;;;14.05;;
40729;SDS011;26418;50.070;8.436;2023-01-25T04:05:53;27.50;;;13.68;;
40729;SDS011;26418;50.070;8.436;2023-01-25T04:08:19;24.92;;;12.80;;
40729;SDS011;26418;50.070;8.436;2023-01-25T04:13:18;25.48;;;13.57;;
40729;SDS011;26418;50.070;8.436;2023-01-25T04:15:48;25.85;;;13.15;;
40729;SDS011;26418;50.070;8.436;2023-01-25T04:18:13;29.27;;;14.77;;
40729;SDS011;26418;50.070;8.436;2023-01-25T04:20:39;27.45;;;14.38;;
40729;SDS011;26418;50.070;8.436;2023-01-25T04:23:06;23.88;;;13.07;;
40729;SDS011;26418;50.070;8.436;2023-01-25T04:25:31;27.95;;;13.63;;
40729;SDS011;26418;50.070;8.436;2023-01-25T04:27:57;28.05;;;14.82;;
40729;SDS011;26418;50.070;8.436;2023-01-25T04:30:22;29.20;;;14.75;;
40729;SDS011;26418;50.070;8.436;2023-01-25T04:32:48;28.45;;;15.35;;
40729;SDS011;26418;50.070;8.436;2023-01-25T04:35:13;26.17;;;15.18;;
40729;SDS011;26418;50.070;8.436;2023-01-25T04:37:39;32.17;;;14.23;;
40729;SDS011;26418;50.070;8.436;2023-01-25T04:40:04;26.45;;;13.52;;
40729;SDS011;26418;50.070;8.436;2023-01-25T04:42:30;26.02;;;13.32;;
40729;SDS011;26418;50.070;8.436;2023-01-25T04:44:56;26.65;;;14.38;;
40729;SDS011;26418;50.070;8.436;2023-01-25T04:47:21;26.27;;;14.05;;
40729;SDS011;26418;50.070;8.436;2023-01-25T04:49:46;25.73;;;13.13;;
40729;SDS011;26418;50.070;8.436;2023-01-25T04:52:11;24.27;;;13.02;;
40729;SDS011;26418;50.070;8.436;2023-01-25T04:54:37;25.77;;;13.15;;
40729;SDS011;26418;50.070;8.436;2023-01-25T04:57:02;23.13;;;12.95;;
40729;SDS011;26418;50.070;8.436;2023-01-25T04:59:27;27.77;;;14.30;;
40729;SDS011;26418;50.070;8.436;2023-01-25T05:01:53;25.45;;;12.43;;
40729;SDS011;26418;50.070;8.436;2023-01-25T05:04:18;26.70;;;13.68;;
40729;SDS011;26418;50.070;8.436;2023-01-25T05:06:43;27.25;;;13.43;;
40729;SDS011;26418;50.070;8.436;2023-01-25T05:09:09;28.90;;;15.00;;
40729;SDS011;26418;50.070;8.436;2023-01-25T05:11:34;24.10;;;14.15;;
40729;SDS011;26418;50.070;8.436;2023-01-25T05:13:59;24.55;;;13.23;;
40729;SDS011;26418;50.070;8.436;2023-01-25T05:16:25;24.10;;;13.20;;
40729;SDS011;26418;50.070;8.436;2023-01-25T05:18:50;24.38;;;13.07;;
40729;SDS011;26418;50.070;8.436;2023-01-25T05:21:15;24.15;;;12.65;;
40729;SDS011;26418;50.070;8.436;2023-01-25T05:23:59;25.23;;;13.05;;
40729;SDS011;26418;50.070;8.436;2023-01-25T05:26:25;24.55;;;13.18;;
40729;SDS011;26418;50.070;8.436;2023-01-25T05:29:09;25.90;;;14.20;;
40729;SDS011;26418;50.070;8.436;2023-01-25T05:31:34;28.25;;;14.10;;
40729;SDS011;26418;50.070;8.436;2023-01-25T05:33:59;30.77;;;14.05;;
40729;SDS011;26418;50.070;8.436;2023-01-25T05:36:25;28.67;;;13.80;;
40729;SDS011;26418;50.070;8.436;2023-01-25T05:38:50;28.90;;;14.85;;
40729;SDS011;26418;50.070;8.436;2023-01-25T05:41:16;30.02;;;14.52;;
40729;SDS011;26418;50.070;8.436;2023-01-25T05:43:42;25.75;;;13.75;;
40729;SDS011;26418;50.070;8.436;2023-01-25T05:46:07;30.25;;;14.65;;
40729;SDS011;26418;50.070;8.436;2023-01-25T05:48:33;29.30;;;13.98;;
40729;SDS011;26418;50.070;8.436;2023-01-25T05:50:58;28.67;;;14.15;;
40729;SDS011;26418;50.070;8.436;2023-01-25T05:53:24;27.27;;;14.85;;
40729;SDS011;26418;50.070;8.436;2023-01-25T05:55:50;33.22;;;16.00;;
40729;SDS011;26418;50.070;8.436;2023-01-25T05:58:15;30.88;;;15.18;;
40729;SDS011;26418;50.070;8.436;2023-01-25T06:00:41;21.42;;;10.10;;
40729;SDS011;26418;50.070;8.436;2023-01-25T06:03:06;18.40;;;7.38;;
40729;SDS011;26418;50.070;8.436;2023-01-25T06:05:31;32.40;;;15.52;;
40729;SDS011;26418;50.070;8.436;2023-01-25T06:07:57;26.05;;;13.93;;
40729;SDS011;26418;50.070;8.436;2023-01-25T06:10:22;36.13;;;17.17;;
40729;SDS011;26418;50.070;8.436;2023-01-25T06:12:48;30.95;;;15.25;;
40729;SDS011;26418;50.070;8.436;2023-01-25T06:15:13;34.60;;;18.05;;
40729;SDS011;26418;50.070;8.436;2023-01-25T06:17:38;27.83;;;14.63;;
40729;SDS011;26418;50.070;8.436;2023-01-25T06:20:04;27.63;;;14.82;;
40729;SDS011;26418;50.070;8.436;2023-01-25T06:22:30;38.63;;;14.18;;
40729;SDS011;26418;50.070;8.436;2023-01-25T06:24:55;26.52;;;13.02;;
40729;SDS011;26418;50.070;8.436;2023-01-25T06:27:20;30.70;;;15.48;;
40729;SDS011;26418;50.070;8.436;2023-01-25T06:29:46;27.33;;;15.88;;
40729;SDS011;26418;50.070;8.436;2023-01-25T06:32:11;30.45;;;15.88;;
40729;SDS011;26418;50.070;8.436;2023-01-25T06:34:36;29.75;;;15.18;;
40729;SDS011;26418;50.070;8.436;2023-01-25T06:37:02;25.55;;;13.93;;
40729;SDS011;26418;50.070;8.436;2023-01-25T06:39:27;26.55;;;14.48;;
40729;SDS011;26418;50.070;8.436;2023-01-25T06:41:53;31.17;;;14.38;;
40729;SDS011;26418;50.070;8.436;2023-01-25T06:44:20;28.63;;;14.88;;
40729;SDS011;26418;50.070;8.436;2023-01-25T06:46:45;28.73;;;15.07;;
40729;SDS011;26418;50.070;8.436;2023-01-25T06:49:10;31.98;;;16.20;;
40729;SDS011;26418;50.070;8.436;2023-01-25T06:51:36;33.10;;;16.83;;
40729;SDS011;26418;50.070;8.436;2023-01-25T06:54:01;33.35;;;16.10;;
40729;SDS011;26418;50.070;8.436;2023-01-25T06:56:28;29.15;;;16.10;;
40729;SDS011;26418;50.070;8.436;2023-01-25T06:58:53;33.17;;;16.23;;
40729;SDS011;26418;50.070;8.436;2023-01-25T07:01:22;29.60;;;14.73;;
40729;SDS011;26418;50.070;8.436;2023-01-25T07:03:52;31.90;;;16.55;;
40729;SDS011;26418;50.070;8.436;2023-01-25T07:06:19;28.40;;;15.48;;
40729;SDS011;26418;50.070;8.436;2023-01-25T07:08:45;29.42;;;15.70;;
40729;SDS011;26418;50.070;8.436;2023-01-25T07:11:11;31.08;;;15.95;;
40729;SDS011;26418;50.070;8.436;2023-01-25T07:13:40;33.08;;;17.30;;
40729;SDS011;26418;50.070;8.436;2023-01-25T07:16:07;32.85;;;17.52;;
40729;SDS011;26418;50.070;8.436;2023-01-25T07:18:36;32.22;;;16.80;;
40729;SDS011;26418;50.070;8.436;2023-01-25T07:21:05;35.60;;;16.77;;
40729;SDS011;26418;50.070;8.436;2023-01-25T07:23:32;34.47;;;17.02;;
40729;SDS011;26418;50.070;8.436;2023-01-25T07:25:58;32.97;;;17.40;;
40729;SDS011;26418;50.070;8.436;2023-01-25T07:28:24;31.92;;;16.65;;
40729;SDS011;26418;50.070;8.436;2023-01-25T07:30:50;35.75;;;16.20;;
40729;SDS011;26418;50.070;8.436;2023-01-25T07:33:15;35.17;;;17.02;;
40729;SDS011;26418;50.070;8.436;2023-01-25T07:35:41;34.50;;;17.75;;
40729;SDS011;26418;50.070;8.436;2023-01-25T07:38:06;34.03;;;16.92;;
40729;SDS011;26418;50.070;8.436;2023-01-25T07:40:31;31.77;;;16.52;;
40729;SDS011;26418;50.070;8.436;2023-01-25T07:42:57;33.05;;;16.85;;
40729;SDS011;26418;50.070;8.436;2023-01-25T07:45:22;33.80;;;16.80;;
40729;SDS011;26418;50.070;8.436;2023-01-25T07:47:54;41.03;;;16.63;;
40729;SDS011;26418;50.070;8.436;2023-01-25T07:50:20;33.40;;;15.55;;
40729;SDS011;26418;50.070;8.436;2023-01-25T07:52:45;33.33;;;17.20;;
40729;SDS011;26418;50.070;8.436;2023-01-25T07:55:10;37.35;;;17.42;;
40729;SDS011;26418;50.070;8.436;2023-01-25T07:57:36;35.97;;;17.35;;
40729;SDS011;26418;50.070;8.436;2023-01-25T08:00:02;37.67;;;18.42;;
40729;SDS011;26418;50.070;8.436;2023-01-25T08:02:27;31.60;;;16.83;;
40729;SDS011;26418;50.070;8.436;2023-01-25T08:04:53;37.85;;;16.85;;
40729;SDS011;26418;50.070;8.436;2023-01-25T08:07:19;31.10;;;15.60;;
40729;SDS011;26418;50.070;8.436;2023-01-25T08:09:47;33.60;;;15.88;;
40729;SDS011;26418;50.070;8.436;2023-01-25T08:12:12;36.40;;;16.77;;
40729;SDS011;26418;50.070;8.436;2023-01-25T08:14:38;38.58;;;18.15;;
40729;SDS011;26418;50.070;8.436;2023-01-25T08:17:03;35.80;;;17.83;;
40729;SDS011;26418;50.070;8.436;2023-01-25T08:19:29;34.67;;;16.77;;
40729;SDS011;26418;50.070;8.436;2023-01-25T08:21:54;35.20;;;16.60;;
40729;SDS011;26418;50.070;8.436;2023-01-25T08:24:19;38.78;;;17.58;;
40729;SDS011;26418;50.070;8.436;2023-01-25T08:26:45;29.55;;;14.95;;
40729;SDS011;26418;50.070;8.436;2023-01-25T08:29:10;32.03;;;15.93;;
40729;SDS011;26418;50.070;8.436;2023-01-25T08:31:38;33.03;;;18.25;;
40729;SDS011;26418;50.070;8.436;2023-01-25T08:34:05;38.80;;;18.08;;
40729;SDS011;26418;50.070;8.436;2023-01-25T08:36:30;35.40;;;18.55;;
40729;SDS011;26418;50.070;8.436;2023-01-25T08:38:57;37.15;;;18.15;;
40729;SDS011;26418;50.070;8.436;2023-01-25T08:41:24;35.30;;;18.20;;
40729;SDS011;26418;50.070;8.436;2023-01-25T08:43:51;34.72;;;16.88;;
40729;SDS011;26418;50.070;8.436;2023-01-25T08:46:18;30.77;;;15.82;;
40729;SDS011;26418;50.070;8.436;2023-01-25T08:48:44;35.50;;;16.05;;
40729;SDS011;26418;50.070;8.436;2023-01-25T08:51:14;36.55;;;16.05;;
40729;SDS011;26418;50.070;8.436;2023-01-25T08:53:40;35.20;;;16.67;;
40729;SDS011;26418;50.070;8.436;2023-01-25T08:56:07;34.15;;;16.08;;
40729;SDS011;26418;50.070;8.436;2023-01-25T08:58:36;35.95;;;15.68;;
40729;SDS011;26418;50.070;8.436;2023-01-25T09:01:06;32.73;;;15.83;;
40729;SDS011;26418;50.070;8.436;2023-01-25T09:03:34;32.83;;;15.77;;
40729;SDS011;26418;50.070;8.436;2023-01-25T09:06:01;33.35;;;16.25;;
40729;SDS011;26418;50.070;8.436;2023-01-25T09:08:26;34.78;;;15.85;;
40729;SDS011;26418;50.070;8.436;2023-01-25T09:10:51;37.60;;;17.55;;
40729;SDS011;26418;50.070;8.436;2023-01-25T09:13:17;41.10;;;16.80;;
40729;SDS011;26418;50.070;8.436;2023-01-25T09:15:42;33.03;;;16.00;;
40729;SDS011;26418;50.070;8.436;2023-01-25T09:18:08;41.13;;;17.70;;
40729;SDS011;26418;50.070;8.436;2023-01-25T09:20:34;33.17;;;15.57;;
40729;SDS011;26418;50.070;8.436;2023-01-25T09:22:59;32.50;;;15.20;;
40729;SDS011;26418;50.070;8.436;2023-01-25T09:25:24;27.20;;;13.65;;
40729;SDS011;26418;50.070;8.436;2023-01-25T09:27:50;35.55;;;16.13;;
40729;SDS011;26418;50.070;8.436;2023-01-25T09:30:15;33.10;;;16.08;;
40729;SDS011;26418;50.070;8.436;2023-01-25T09:32:42;36.28;;;16.63;;
40729;SDS011;26418;50.070;8.436;2023-01-25T09:35:07;38.55;;;17.80;;
40729;SDS011;26418;50.070;8.436;2023-01-25T09:37:33;40.17;;;17.33;;
40729;SDS011;26418;50.070;8.436;2023-01-25T09:39:58;32.63;;;16.33;;
40729;SDS011;26418;50.070;8.436;2023-01-25T09:47:41;35.60;;;15.90;;
40729;SDS011;26418;50.070;8.436;2023-01-25T09:50:17;35.28;;;16.85;;
40729;SDS011;26418;50.070;8.436;2023-01-25T09:53:11;36.85;;;17.42;;
40729;SDS011;26418;50.070;8.436;2023-01-25T09:55:44;33.78;;;16.02;;
40729;SDS011;26418;50.070;8.436;2023-01-25T09:58:18;36.15;;;17.13;;
40729;SDS011;26418;50.070;8.436;2023-01-25T10:00:47;33.78;;;17.63;;
40729;SDS011;26418;50.070;8.436;2023-01-25T10:03:26;31.60;;;16.73;;
40729;SDS011;26418;50.070;8.436;2023-01-25T10:06:00;35.92;;;15.00;;
40729;SDS011;26418;50.070;8.436;2023-01-25T10:08:50;37.47;;;16.30;;
40729;SDS011;26418;50.070;8.436;2023-01-25T10:11:25;34.58;;;14.45;;
40729;SDS011;26418;50.070;8.436;2023-01-25T10:13:52;30.10;;;14.57;;
40729;SDS011;26418;50.070;8.436;2023-01-25T10:19:35;34.55;;;15.65;;
40729;SDS011;26418;50.070;8.436;2023-01-25T10:22:23;30.65;;;14.05;;
40729;SDS011;26418;50.070;8.436;2023-01-25T10:30:35;37.22;;;16.10;;
40729;SDS011;26418;50.070;8.436;2023-01-25T10:33:09;36.28;;;15.63;;
40729;SDS011;26418;50.070;8.436;2023-01-25T10:35:40;31.80;;;14.88;;
40729;SDS011;26418;50.070;8.436;2023-01-25T10:38:24;35.03;;;15.85;;
40729;SDS011;26418;50.070;8.436;2023-01-25T10:40:59;35.65;;;16.13;;
40729;SDS011;26418;50.070;8.436;2023-01-25T10:43:30;32.75;;;16.15;;
40729;SDS011;26418;50.070;8.436;2023-01-25T10:45:56;35.90;;;16.02;;
40729;SDS011;26418;50.070;8.436;2023-01-25T10:48:22;272.55;;;72.22;;
40729;SDS011;26418;50.070;8.436;2023-01-25T10:50:54;201.85;;;66.72;;
40729;SDS011;26418;50.070;8.436;2023-01-25T10:53:42;144.23;;;52.47;;
40729;SDS011;26418;50.070;8.436;2023-01-25T10:58:34;39.03;;;18.75;;
40729;SDS011;26418;50.070;8.436;2023-01-25T11:01:05;31.38;;;16.30;;
40729;SDS011;26418;50.070;8.436;2023-01-25T11:03:34;37.80;;;17.48;;
40729;SDS011;26418;50.070;8.436;2023-01-25T11:06:01;31.52;;;16.85;;
40729;SDS011;26418;50.070;8.436;2023-01-25T11:10:55;44.22;;;19.20;;
40729;SDS011;26418;50.070;8.436;2023-01-25T11:13:25;37.58;;;18.83;;
40729;SDS011;26418;50.070;8.436;2023-01-25T11:15:52;40.28;;;18.85;;
40729;SDS011;26418;50.070;8.436;2023-01-25T11:18:20;39.80;;;20.95;;
40729;SDS011;26418;50.070;8.436;2023-01-25T11:21:01;43.65;;;20.00;;
40729;SDS011;26418;50.070;8.436;2023-01-25T11:23:28;40.20;;;17.13;;
40729;SDS011;26418;50.070;8.436;2023-01-25T11:25:53;44.25;;;20.70;;
40729;SDS011;26418;50.070;8.436;2023-01-25T11:28:47;37.15;;;17.23;;
40729;SDS011;26418;50.070;8.436;2023-01-25T11:31:14;40.40;;;17.95;;
40729;SDS011;26418;50.070;8.436;2023-01-25T11:33:43;113.55;;;33.35;;
40729;SDS011;26418;50.070;8.436;2023-01-25T11:39:00;51.45;;;21.58;;
40729;SDS011;26418;50.070;8.436;2023-01-25T11:41:54;100.80;;;35.42;;
40729;SDS011;26418;50.070;8.436;2023-01-25T11:50:29;40.30;;;19.85;;
40729;SDS011;26418;50.070;8.436;2023-01-25T11:58:40;37.08;;;17.50;;
40729;SDS011;26418;50.070;8.436;2023-01-25T12:03:47;38.75;;;17.05;;
40729;SDS011;26418;50.070;8.436;2023-01-25T12:06:35;35.50;;;17.27;;
40729;SDS011;26418;50.070;8.436;2023-01-25T12:14:50;35.95;;;18.15;;
40729;SDS011;26418;50.070;8.436;2023-01-25T12:20:05;37.80;;;16.95;;
40729;SDS011;26418;50.070;8.436;2023-01-25T12:30:35;36.95;;;17.48;;
40729;SDS011;26418;50.070;8.436;2023-01-25T12:33:08;36.72;;;16.80;;
40729;SDS011;26418;50.070;8.436;2023-01-25T12:38:38;36.88;;;16.77;;
40729;SDS011;26418;50.070;8.436;2023-01-25T12:44:08;45.17;;;18.50;;
40729;SDS011;26418;50.070;8.436;2023-01-25T12:46:50;38.38;;;14.98;;
40729;SDS011;26418;50.070;8.436;2023-01-25T12:49:24;27.67;;;12.77;;
40729;SDS011;26418;50.070;8.436;2023-01-25T12:51:55;37.75;;;18.23;;
40729;SDS011;26418;50.070;8.436;2023-01-25T12:54:30;38.75;;;16.77;;
40729;SDS011;26418;50.070;8.436;2023-01-25T12:57:05;31.80;;;15.98;;
40729;SDS011;26418;50.070;8.436;2023-01-25T13:12:50;30.63;;;14.77;;
40729;SDS011;26418;50.070;8.436;2023-01-25T13:18:53;31.35;;;15.32;;
40729;SDS011;26418;50.070;8.436;2023-01-25T13:20:57;34.28;;;15.73;;
40729;SDS011;26418;50.070;8.436;2023-01-25T13:29:02;39.05;;;16.23;;
40729;SDS011;26418;50.070;8.436;2023-01-25T13:34:07;33.95;;;14.65;;
40729;SDS011;26418;50.070;8.436;2023-01-25T13:36:37;34.38;;;15.40;;
40729;SDS011;26418;50.070;8.436;2023-01-25T13:41:56;36.08;;;15.35;;
40729;SDS011;26418;50.070;8.436;2023-01-25T13:44:42;32.88;;;15.65;;
40729;SDS011;26418;50.070;8.436;2023-01-25T13:47:10;38.22;;;14.80;;
40729;SDS011;26418;50.070;8.436;2023-01-25T13:49:41;33.85;;;15.70;;
40729;SDS011;26418;50.070;8.436;2023-01-25T13:52:19;38.38;;;16.30;;
40729;SDS011;26418;50.070;8.436;2023-01-25T13:54:46;34.63;;;15.55;;
40729;SDS011;26418;50.070;8.436;2023-01-25T13:57:13;34.95;;;15.45;;
40729;SDS011;26418;50.070;8.436;2023-01-25T13:59:43;39.75;;;16.15;;
40729;SDS011;26418;50.070;8.436;2023-01-25T14:02:19;33.58;;;16.05;;
40729;SDS011;26418;50.070;8.436;2023-01-25T14:04:48;35.72;;;15.80;;
40729;SDS011;26418;50.070;8.436;2023-01-25T14:07:16;32.35;;;15.70;;
40729;SDS011;26418;50.070;8.436;2023-01-25T14:09:44;37.15;;;16.25;;
40729;SDS011;26418;50.070;8.436;2023-01-25T14:12:28;42.97;;;17.45;;
40729;SDS011;26418;50.070;8.436;2023-01-25T14:15:41;39.40;;;17.65;;
40729;SDS011;26418;50.070;8.436;2023-01-25T14:20:44;37.40;;;16.73;;
40729;SDS011;26418;50.070;8.436;2023-01-25T14:25:52;36.22;;;15.90;;
40729;SDS011;26418;50.070;8.436;2023-01-25T14:28:19;36.95;;;16.65;;
40729;SDS011;26418;50.070;8.436;2023-01-25T14:30:52;40.35;;;16.85;;
40729;SDS011;26418;50.070;8.436;2023-01-25T14:36:07;32.50;;;14.32;;
40729;SDS011;26418;50.070;8.436;2023-01-25T14:38:37;40.63;;;16.20;;
40729;SDS011;26418;50.070;8.436;2023-01-25T14:43:44;40.45;;;16.80;;
40729;SDS011;26418;50.070;8.436;2023-01-25T14:46:21;29.35;;;14.30;;
40729;SDS011;26418;50.070;8.436;2023-01-25T14:51:44;34.95;;;15.48;;
40729;SDS011;26418;50.070;8.436;2023-01-25T14:54:14;40.67;;;17.23;;
40729;SDS011;26418;50.070;8.436;2023-01-25T14:56:48;38.17;;;16.85;;
40729;SDS011;26418;50.070;8.436;2023-01-25T15:01:51;40.13;;;16.67;;
40729;SDS011;26418;50.070;8.436;2023-01-25T15:04:18;41.45;;;17.92;;
40729;SDS011;26418;50.070;8.436;2023-01-25T15:14:47;35.90;;;16.30;;
40729;SDS011;26418;50.070;8.436;2023-01-25T15:28:22;38.35;;;16.85;;
40729;SDS011;26418;50.070;8.436;2023-01-25T15:30:49;42.75;;;17.33;;
40729;SDS011;26418;50.070;8.436;2023-01-25T15:33:25;40.05;;;16.90;;
40729;SDS011;26418;50.070;8.436;2023-01-25T15:35:52;36.72;;;17.65;;
40729;SDS011;26418;50.070;8.436;2023-01-25T15:38:18;37.70;;;16.60;;
40729;SDS011;26418;50.070;8.436;2023-01-25T15:40:44;37.42;;;17.33;;
40729;SDS011;26418;50.070;8.436;2023-01-25T15:43:13;41.47;;;17.48;;
40729;SDS011;26418;50.070;8.436;2023-01-25T15:45:41;45.50;;;17.95;;
40729;SDS011;26418;50.070;8.436;2023-01-25T15:48:17;42.13;;;15.52;;
40729;SDS011;26418;50.070;8.436;2023-01-25T15:50:56;40.85;;;17.92;;
40729;SDS011;26418;50.070;8.436;2023-01-25T15:53:22;39.10;;;18.45;;
40729;SDS011;26418;50.070;8.436;2023-01-25T15:55:49;41.67;;;18.55;;
40729;SDS011;26418;50.070;8.436;2023-01-25T15:58:22;40.45;;;18.08;;
40729;SDS011;26418;50.070;8.436;2023-01-25T16:00:50;40.20;;;18.40;;
40729;SDS011;26418;50.070;8.436;2023-01-25T16:03:15;41.08;;;17.85;;
40729;SDS011;26418;50.070;8.436;2023-01-25T16:05:44;42.97;;;18.30;;
40729;SDS011;26418;50.070;8.436;2023-01-25T16:08:16;43.17;;;19.13;;
40729;SDS011;26418;50.070;8.436;2023-01-25T16:10:43;40.80;;;18.40;;
40729;SDS011;26418;50.070;8.436;2023-01-25T16:13:08;46.85;;;19.33;;
40729;SDS011;26418;50.070;8.436;2023-01-25T16:15:35;40.58;;;18.35;;
40729;SDS011;26418;50.070;8.436;2023-01-25T16:18:01;49.70;;;19.40;;
40729;SDS011;26418;50.070;8.436;2023-01-25T16:20:27;46.58;;;19.08;;
40729;SDS011;26418;50.070;8.436;2023-01-25T16:22:52;41.90;;;17.58;;
40729;SDS011;26418;50.070;8.436;2023-01-25T16:25:18;39.92;;;17.42;;
40729;SDS011;26418;50.070;8.436;2023-01-25T16:27:44;40.20;;;18.65;;
40729;SDS011;26418;50.070;8.436;2023-01-25T16:30:16;41.40;;;18.88;;
40729;SDS011;26418;50.070;8.436;2023-01-25T16:32:43;43.65;;;18.83;;
40729;SDS011;26418;50.070;8.436;2023-01-25T16:35:09;46.20;;;19.73;;
40729;SDS011;26418;50.070;8.436;2023-01-25T16:37:34;49.10;;;19.17;;
40729;SDS011;26418;50.070;8.436;2023-01-25T16:39:59;52.80;;;19.95;;
40729;SDS011;26418;50.070;8.436;2023-01-25T16:42:25;46.00;;;19.63;;